createdAt,value
2019-01-20T00:00:15.306Z,55.9
2019-01-20T00:03:15.867Z,56.2
2019-01-20T00:06:15.116Z,56.3
2019-01-20T00:09:15.585Z,56.3
2019-01-20T00:12:15.276Z,55.5
2019-01-20T00:15:15.603Z,55.8
2019-01-20T00:18:15.219Z,56.5
2019-01-20T00:21:15.691Z,56.3
2019-01-20T00:24:15.458Z,55.4
2019-01-20T00:27:15.101Z,57.6
2019-01-20T00:30:15.445Z,56.0
2019-01-20T00:33:15.771Z,55.9
2019-01-20T00:36:15.262Z,55.9
2019-01-20T00:39:15.524Z,55.6
2019-01-20T00:42:14.903Z,55.4
2019-01-20T00:45:15.177Z,55.2
2019-01-20T00:48:15.413Z,55.4
2019-01-20T00:51:15.737Z,55.6
2019-01-20T00:54:15.307Z,55.4
2019-01-20T00:57:14.827Z,55.9
2019-01-20T01:00:15.127Z,56.0
2019-01-20T01:03:15.265Z,56.2
2019-01-20T01:06:15.494Z,56.3
2019-01-20T01:09:15.849Z,55.8
2019-01-20T01:12:15.205Z,56.0
2019-01-20T01:15:15.539Z,56.4
2019-01-20T01:18:14.945Z,55.8
2019-01-20T01:21:15.319Z,55.8
2019-01-20T01:24:15.553Z,55.4
2019-01-20T01:27:14.807Z,56.1
2019-01-20T01:30:15.263Z,56.2
2019-01-20T01:33:14.937Z,55.6
2019-01-20T01:36:15.358Z,55.8
2019-01-20T01:39:15.595Z,56.3
2019-01-20T01:42:14.882Z,55.8
2019-01-20T01:45:15.360Z,55.6
2019-01-20T01:48:15.535Z,55.2
2019-01-20T01:51:15.758Z,56.1
2019-01-20T01:54:15.337Z,55.6
2019-01-20T01:57:15.771Z,55.2
2019-01-20T02:00:15.819Z,54.2
2019-01-20T02:03:15.100Z,53.6
2019-01-20T02:06:15.521Z,53.6
2019-01-20T02:09:15.772Z,53.6
2019-01-20T02:12:15.121Z,53.6
2019-01-20T02:15:15.713Z,53.7
2019-01-20T02:18:15.069Z,53.6
2019-01-20T02:21:15.425Z,53.6
2019-01-20T02:24:15.879Z,53.2
2019-01-20T02:27:15.079Z,53.6
2019-01-20T02:30:15.463Z,53.6
2019-01-20T02:33:15.103Z,54.4
2019-01-20T02:36:15.548Z,53.8
2019-01-20T02:39:15.019Z,52.7
2019-01-20T02:42:15.463Z,52.7
2019-01-20T02:45:15.180Z,52.9
2019-01-20T02:48:15.714Z,53.0
2019-01-20T02:51:14.990Z,53.1
2019-01-20T02:54:15.171Z,53.1
2019-01-20T02:57:15.691Z,53.4
2019-01-20T03:00:15.016Z,53.2
2019-01-20T03:03:15.537Z,53.3
2019-01-20T03:06:15.191Z,53.3
2019-01-20T03:09:15.619Z,53.6
2019-01-20T03:12:14.876Z,53.7
2019-01-20T03:15:15.292Z,53.7
2019-01-20T03:18:15.826Z,53.9
2019-01-20T03:21:15.276Z,54.1
2019-01-20T03:24:15.869Z,54.2
2019-01-20T03:27:15.124Z,54.3
2019-01-20T03:30:15.039Z,54.4
2019-01-20T03:33:15.258Z,54.7
2019-01-20T03:36:15.818Z,54.9
2019-01-20T03:39:15.194Z,55.1
2019-01-20T03:42:15.580Z,55.4
2019-01-20T03:45:14.951Z,55.8
2019-01-20T03:48:15.699Z,55.9
2019-01-20T03:51:15.090Z,56.2
2019-01-20T03:54:15.757Z,56.1
2019-01-20T03:57:14.977Z,56.3
2019-01-20T04:00:15.607Z,56.4
2019-01-20T04:03:15.312Z,56.4
2019-01-20T04:06:15.842Z,56.4
2019-01-20T04:09:15.267Z,56.4
2019-01-20T04:12:20.526Z,56.4
2019-01-20T04:15:15.594Z,56.6
2019-01-20T04:18:15.722Z,56.4
2019-01-20T04:21:15.159Z,56.6
2019-01-20T04:24:15.781Z,56.7
2019-01-20T04:27:15.302Z,56.6
2019-01-20T04:30:15.733Z,56.6
2019-01-20T04:33:15.063Z,56.6
2019-01-20T04:36:15.548Z,56.7
2019-01-20T04:39:15.103Z,56.7
2019-01-20T04:42:15.767Z,56.7
2019-01-20T04:45:15.866Z,56.7
2019-01-20T04:48:15.590Z,56.8
2019-01-20T04:51:15.119Z,56.6
2019-01-20T04:54:15.542Z,56.6
2019-01-20T04:57:14.924Z,56.5
2019-01-20T05:00:15.529Z,56.7
2019-01-20T05:03:15.200Z,56.6
2019-01-20T05:06:15.634Z,56.4
2019-01-20T05:09:15.353Z,56.4
2019-01-20T05:12:15.789Z,56.3
2019-01-20T05:15:15.148Z,56.2
2019-01-20T05:18:15.063Z,56.1
2019-01-20T05:21:15.562Z,56.1
2019-01-20T05:24:14.919Z,56.0
2019-01-20T05:27:15.396Z,55.9
2019-01-20T05:30:15.118Z,55.7
2019-01-20T05:33:14.961Z,55.9
2019-01-20T05:36:15.243Z,56.2
2019-01-20T05:39:15.572Z,56.1
2019-01-20T05:42:15.259Z,56.0
2019-01-20T05:45:15.719Z,56.0
2019-01-20T05:48:15.300Z,56.0
2019-01-20T05:51:15.684Z,56.1
2019-01-20T05:54:15.571Z,56.2
2019-01-20T05:57:15.086Z,56.3
2019-01-20T06:00:15.763Z,56.3
2019-01-20T06:03:15.582Z,56.3
2019-01-20T06:06:15.119Z,56.3
2019-01-20T06:09:15.532Z,56.3
2019-01-20T06:12:15.055Z,56.6
2019-01-20T06:15:15.550Z,56.5
2019-01-20T06:18:15.602Z,56.6
2019-01-20T06:21:15.254Z,56.6
2019-01-20T06:24:15.886Z,56.6
2019-01-20T06:27:15.352Z,56.5
2019-01-20T06:30:15.751Z,56.5
2019-01-20T06:33:15.713Z,56.5
2019-01-20T06:36:15.397Z,56.7
2019-01-20T06:39:15.103Z,56.8
2019-01-20T06:42:15.595Z,56.8
2019-01-20T06:45:15.363Z,56.9
2019-01-20T06:48:14.966Z,56.9
2019-01-20T06:51:15.718Z,56.9
2019-01-20T06:54:15.425Z,56.9
2019-01-20T06:57:15.378Z,57.0
2019-01-20T07:00:15.878Z,57.0
2019-01-20T07:03:15.450Z,57.1
2019-01-20T07:06:15.820Z,57.2
2019-01-20T07:09:15.691Z,57.1
2019-01-20T07:12:15.556Z,57.2
2019-01-20T07:15:15.015Z,57.3
2019-01-20T07:18:15.717Z,57.5
2019-01-20T07:21:15.176Z,57.4
2019-01-20T07:24:15.562Z,57.3
2019-01-20T07:27:15.527Z,57.5
2019-01-20T07:30:15.112Z,57.6
2019-01-20T07:33:15.802Z,57.2
2019-01-20T07:36:15.289Z,57.0
2019-01-20T07:39:15.703Z,56.8
2019-01-20T07:42:15.249Z,56.6
2019-01-20T07:45:15.698Z,56.3
2019-01-20T07:48:15.396Z,55.9
2019-01-20T07:51:15.760Z,55.8
2019-01-20T07:54:15.161Z,55.2
2019-01-20T07:57:15.536Z,54.9
2019-01-20T08:00:15.829Z,54.6
2019-01-20T08:03:15.696Z,54.3
2019-01-20T08:06:15.468Z,54.0
2019-01-20T08:09:15.455Z,53.5
2019-01-20T08:12:23.355Z,53.6
2019-01-20T08:15:15.563Z,53.3
2019-01-20T08:18:15.415Z,53.2
2019-01-20T08:21:15.723Z,53.1
2019-01-20T08:24:15.311Z,52.9
2019-01-20T08:27:15.840Z,52.3
2019-01-20T08:30:15.344Z,52.4
2019-01-20T08:33:15.786Z,51.8
2019-01-20T08:36:15.306Z,51.8
2019-01-20T08:39:15.296Z,51.2
2019-01-20T08:42:15.772Z,50.7
2019-01-20T08:45:15.022Z,48.9
2019-01-20T08:48:15.674Z,47.9
2019-01-20T08:51:15.736Z,46.5
2019-01-20T08:54:15.322Z,45.6
2019-01-20T08:57:15.468Z,45.9
2019-01-20T09:00:15.233Z,45.8
2019-01-20T09:03:15.613Z,45.3
2019-01-20T09:06:15.400Z,44.3
2019-01-20T09:09:15.012Z,43.5
2019-01-20T09:12:15.552Z,42.3
2019-01-20T09:15:15.172Z,42.2
2019-01-20T09:18:15.607Z,40.3
2019-01-20T09:21:15.799Z,40.2
2019-01-20T09:24:15.641Z,39.0
2019-01-20T09:27:14.992Z,37.6
2019-01-20T09:30:15.542Z,37.4
2019-01-20T09:33:15.167Z,36.4
2019-01-20T09:36:15.618Z,35.6
2019-01-20T09:39:15.599Z,35.3
2019-01-20T09:42:15.211Z,35.0
2019-01-20T09:45:15.645Z,35.1
2019-01-20T09:48:15.273Z,34.4
2019-01-20T09:51:15.595Z,34.3
2019-01-20T09:54:15.586Z,35.9
2019-01-20T09:57:15.596Z,36.8
2019-01-20T10:00:15.050Z,38.4
2019-01-20T10:03:16.348Z,39.0
2019-01-20T10:06:15.609Z,38.7
2019-01-20T10:09:15.291Z,38.5
2019-01-20T10:12:15.109Z,38.9
2019-01-20T10:15:15.591Z,39.3
2019-01-20T10:18:15.154Z,40.0
2019-01-20T10:21:15.564Z,40.9
2019-01-20T10:24:14.910Z,41.0
2019-01-20T10:27:15.601Z,40.9
2019-01-20T10:30:15.081Z,41.3
2019-01-20T10:33:15.040Z,40.7
2019-01-20T10:36:15.845Z,40.3
2019-01-20T10:39:15.492Z,39.6
2019-01-20T10:42:15.207Z,38.8
2019-01-20T10:45:15.841Z,37.5
2019-01-20T10:48:14.878Z,37.2
2019-01-20T10:51:15.147Z,36.0
2019-01-20T10:54:15.856Z,35.2
2019-01-20T10:57:15.866Z,34.2
2019-01-20T11:00:15.692Z,33.4
2019-01-20T11:03:15.840Z,33.7
2019-01-20T11:06:15.494Z,34.4
2019-01-20T11:09:15.117Z,35.1
2019-01-20T11:12:15.446Z,34.1
2019-01-20T11:15:15.292Z,33.1
2019-01-20T11:18:14.958Z,33.1
2019-01-20T11:21:15.179Z,33.2
2019-01-20T11:24:15.866Z,33.6
2019-01-20T11:27:15.383Z,33.6
2019-01-20T11:30:15.765Z,33.5
2019-01-20T11:33:15.258Z,33.4
2019-01-20T11:36:15.683Z,33.9
2019-01-20T11:39:15.454Z,34.5
2019-01-20T11:42:15.019Z,34.7
2019-01-20T11:45:15.508Z,34.7
2019-01-20T11:48:15.036Z,34.4
2019-01-20T11:51:15.522Z,34.8
2019-01-20T11:54:15.300Z,34.4
2019-01-20T11:57:14.905Z,34.8
2019-01-20T12:00:15.609Z,35.2
2019-01-20T12:03:15.221Z,36.3
2019-01-20T12:06:15.857Z,37.1
2019-01-20T12:09:15.401Z,37.5
2019-01-20T12:12:15.133Z,37.8
2019-01-20T12:15:14.909Z,38.5
2019-01-20T12:18:15.640Z,38.9
2019-01-20T12:21:15.177Z,38.7
2019-01-20T12:24:15.734Z,38.8
2019-01-20T12:27:14.942Z,39.0
2019-01-20T12:30:15.221Z,39.2
2019-01-20T12:33:15.785Z,39.4
2019-01-20T12:36:15.528Z,39.7
2019-01-20T12:39:15.267Z,39.4
2019-01-20T12:42:15.070Z,39.6
2019-01-20T12:45:15.732Z,39.9
2019-01-20T12:48:15.614Z,39.7
2019-01-20T12:51:15.377Z,39.4
2019-01-20T12:54:15.234Z,39.8
2019-01-20T12:57:15.591Z,41.0
2019-01-20T13:00:15.165Z,41.2
2019-01-20T13:03:15.721Z,40.6
2019-01-20T13:06:15.046Z,41.4
2019-01-20T13:09:15.718Z,40.8
2019-01-20T13:12:15.632Z,40.5
2019-01-20T13:15:15.156Z,40.7
2019-01-20T13:18:15.671Z,41.3
2019-01-20T13:21:15.612Z,41.4
2019-01-20T13:24:15.224Z,41.1
2019-01-20T13:27:15.408Z,40.9
2019-01-20T13:30:15.293Z,40.4
2019-01-20T13:33:14.954Z,40.4
2019-01-20T13:36:15.703Z,41.1
2019-01-20T13:39:15.102Z,41.7
2019-01-20T13:42:15.286Z,41.7
2019-01-20T13:45:15.741Z,41.8
2019-01-20T13:48:15.585Z,41.8
2019-01-20T13:51:15.029Z,41.7
2019-01-20T13:54:15.494Z,41.7
2019-01-20T13:57:15.022Z,41.7
2019-01-20T14:00:15.129Z,42.0
2019-01-20T14:03:15.173Z,42.0
2019-01-20T14:06:15.625Z,42.4
2019-01-20T14:09:15.155Z,42.6
2019-01-20T14:12:16.514Z,42.5
2019-01-20T14:15:15.846Z,42.8
2019-01-20T14:18:15.517Z,43.2
2019-01-20T14:21:14.955Z,43.2
2019-01-20T14:24:15.624Z,43.4
2019-01-20T14:27:15.343Z,43.9
2019-01-20T14:30:15.749Z,43.6
2019-01-20T14:33:15.164Z,43.7
2019-01-20T14:36:15.601Z,43.5
2019-01-20T14:39:15.397Z,43.6
2019-01-20T14:42:14.896Z,43.8
2019-01-20T14:45:14.944Z,43.9
2019-01-20T14:48:15.397Z,44.0
2019-01-20T14:51:15.375Z,44.3
2019-01-20T14:54:15.140Z,46.0
2019-01-20T14:57:15.648Z,45.1
2019-01-20T15:00:15.429Z,44.9
2019-01-20T15:03:15.759Z,45.0
2019-01-20T15:06:15.157Z,45.3
2019-01-20T15:09:15.135Z,45.2
2019-01-20T15:12:15.277Z,45.2
2019-01-20T15:15:15.054Z,45.7
2019-01-20T15:18:15.115Z,45.5
2019-01-20T15:21:15.162Z,45.8
2019-01-20T15:24:15.523Z,45.7
2019-01-20T15:27:14.888Z,46.1
2019-01-20T15:30:15.879Z,46.2
2019-01-20T15:33:15.186Z,46.5
2019-01-20T15:36:15.800Z,46.6
2019-01-20T15:39:15.303Z,46.8
2019-01-20T15:42:15.488Z,47.4
2019-01-20T15:45:16.449Z,47.3
2019-01-20T15:48:15.714Z,47.2
2019-01-20T15:51:15.368Z,47.5
2019-01-20T15:54:15.249Z,47.9
2019-01-20T15:57:15.831Z,48.3
2019-01-20T16:00:15.224Z,48.2
2019-01-20T16:03:15.881Z,49.6
2019-01-20T16:06:15.696Z,49.1
2019-01-20T16:09:15.291Z,49.2
2019-01-20T16:12:15.655Z,49.5
2019-01-20T16:15:15.207Z,49.1
2019-01-20T16:18:15.640Z,49.1
2019-01-20T16:21:15.378Z,49.5
2019-01-20T16:24:15.796Z,49.3
2019-01-20T16:27:15.874Z,50.2
2019-01-20T16:30:15.402Z,49.4
2019-01-20T16:33:15.360Z,49.4
2019-01-20T16:36:16.093Z,50.0
2019-01-20T16:39:15.732Z,49.6
2019-01-20T16:42:15.674Z,50.3
2019-01-20T16:45:15.364Z,50.2
2019-01-20T16:48:15.561Z,50.1
2019-01-20T16:51:19.952Z,50.2
2019-01-20T16:54:15.346Z,50.7
2019-01-20T16:57:14.933Z,51.0
2019-01-20T17:00:15.051Z,50.9
2019-01-20T17:03:15.193Z,51.0
2019-01-20T17:06:15.116Z,51.3
2019-01-20T17:09:15.094Z,50.7
2019-01-20T17:12:15.268Z,51.2
2019-01-20T17:15:15.316Z,51.0
2019-01-20T17:18:15.227Z,50.7
2019-01-20T17:21:15.419Z,50.2
2019-01-20T17:24:15.627Z,51.4
2019-01-20T17:27:15.496Z,52.4
2019-01-20T17:30:15.088Z,52.1
2019-01-20T17:33:15.283Z,51.8
2019-01-20T17:36:15.039Z,51.6
2019-01-20T17:39:15.515Z,51.6
2019-01-20T17:42:15.142Z,52.1
2019-01-20T17:45:15.880Z,52.0
2019-01-20T17:48:15.255Z,51.5
2019-01-20T17:51:14.982Z,51.8
2019-01-20T17:54:15.579Z,52.6
2019-01-20T17:57:15.502Z,52.2
2019-01-20T18:00:15.201Z,52.3
2019-01-20T18:03:15.543Z,52.1
2019-01-20T18:06:15.253Z,52.1
2019-01-20T18:09:15.888Z,52.4
2019-01-20T18:12:15.580Z,53.3
2019-01-20T18:15:15.052Z,52.9
2019-01-20T18:18:15.068Z,52.5
2019-01-20T18:21:15.560Z,52.1
2019-01-20T18:24:15.293Z,52.7
2019-01-20T18:27:15.726Z,53.1
2019-01-20T18:30:15.185Z,53.5
2019-01-20T18:33:14.924Z,53.6
2019-01-20T18:36:15.580Z,53.1
2019-01-20T18:39:15.197Z,52.6
2019-01-20T18:42:14.911Z,52.1
2019-01-20T18:45:15.519Z,53.4
2019-01-20T18:48:15.142Z,53.2
2019-01-20T18:51:15.697Z,51.6
2019-01-20T18:54:15.330Z,53.1
2019-01-20T18:57:15.813Z,53.5
2019-01-20T19:00:15.687Z,53.9
2019-01-20T19:03:15.719Z,53.3
2019-01-20T19:06:15.056Z,52.2
2019-01-20T19:09:14.989Z,53.3
2019-01-20T19:12:15.553Z,53.6
2019-01-20T19:15:15.054Z,53.7
2019-01-20T19:18:19.102Z,53.5
2019-01-20T19:21:15.734Z,53.7
2019-01-20T19:24:15.321Z,54.0
2019-01-20T19:27:15.224Z,52.6
2019-01-20T19:30:15.170Z,52.5
2019-01-20T19:33:15.544Z,53.9
2019-01-20T19:36:15.345Z,53.5
2019-01-20T19:39:15.240Z,53.6
2019-01-20T19:42:15.725Z,54.4
2019-01-20T19:45:15.547Z,54.4
2019-01-20T19:48:20.122Z,55.0
2019-01-20T19:51:15.886Z,54.1
2019-01-20T19:54:15.632Z,53.8
2019-01-20T19:57:15.474Z,54.6
2019-01-20T20:00:15.237Z,55.3
2019-01-20T20:03:15.810Z,53.7
2019-01-20T20:06:16.064Z,52.7
2019-01-20T20:09:15.805Z,54.1
2019-01-20T20:12:15.746Z,54.9
2019-01-20T20:15:15.576Z,54.4
2019-01-20T20:18:15.758Z,54.8
2019-01-20T20:21:15.708Z,55.3
2019-01-20T20:24:15.450Z,55.7
2019-01-20T20:27:15.063Z,54.3
2019-01-20T20:30:15.645Z,54.0
2019-01-20T20:33:15.021Z,54.0
2019-01-20T20:36:16.010Z,54.1
2019-01-20T20:39:15.864Z,54.9
2019-01-20T20:42:15.513Z,56.1
2019-01-20T20:45:15.624Z,56.1
2019-01-20T20:48:15.387Z,56.1
2019-01-20T20:51:15.128Z,56.6
2019-01-20T20:54:15.916Z,56.5
2019-01-20T20:57:15.063Z,55.7
2019-01-20T21:00:15.254Z,56.1
2019-01-20T21:03:15.833Z,55.9
2019-01-20T21:06:15.934Z,55.5
2019-01-20T21:09:15.681Z,55.7
2019-01-20T21:12:15.399Z,55.9
2019-01-20T21:15:15.920Z,55.5
2019-01-20T21:18:15.566Z,56.1
2019-01-20T21:21:15.139Z,55.2
2019-01-20T21:24:15.822Z,55.2
2019-01-20T21:27:15.351Z,54.5
2019-01-20T21:30:15.463Z,54.1
2019-01-20T21:33:15.478Z,54.9
2019-01-20T21:36:15.803Z,55.2
2019-01-20T21:39:15.156Z,55.7
2019-01-20T21:42:15.178Z,56.7
2019-01-20T21:45:15.590Z,57.3
2019-01-20T21:48:14.989Z,57.3
2019-01-20T21:51:15.572Z,56.3
2019-01-20T21:54:15.298Z,56.8
2019-01-20T21:57:15.891Z,56.2
2019-01-20T22:00:15.391Z,55.6
2019-01-20T22:03:15.076Z,56.1
2019-01-20T22:06:15.648Z,56.1
2019-01-20T22:09:15.071Z,56.1
2019-01-20T22:12:15.424Z,55.6
2019-01-20T22:15:15.711Z,56.5
2019-01-20T22:18:15.147Z,56.2
2019-01-20T22:21:15.601Z,57.4
2019-01-20T22:24:15.074Z,57.1
2019-01-20T22:27:15.350Z,56.0
2019-01-20T22:30:15.044Z,56.2
2019-01-20T22:33:14.893Z,56.2
2019-01-20T22:36:14.918Z,56.0
2019-01-20T22:39:15.315Z,55.8
2019-01-20T22:42:15.781Z,56.4
2019-01-20T22:45:15.009Z,56.1
2019-01-20T22:48:15.662Z,56.7
2019-01-20T22:51:14.847Z,56.3
2019-01-20T22:54:15.411Z,55.6
2019-01-20T22:57:15.979Z,56.0
2019-01-20T23:00:15.372Z,57.1
2019-01-20T23:03:15.502Z,56.7
2019-01-20T23:06:15.575Z,55.5
2019-01-20T23:09:15.075Z,55.7
2019-01-20T23:12:15.009Z,56.1
2019-01-20T23:15:15.541Z,56.1
2019-01-20T23:18:15.095Z,56.7
2019-01-20T23:21:15.553Z,56.1
2019-01-20T23:24:15.799Z,55.9
2019-01-20T23:27:15.128Z,56.2
2019-01-20T23:30:15.680Z,55.6
2019-01-20T23:33:14.983Z,55.9
2019-01-20T23:36:15.538Z,56.6
2019-01-20T23:39:15.721Z,56.0
2019-01-20T23:42:15.233Z,56.1
2019-01-20T23:45:15.608Z,57.5
2019-01-20T23:48:15.199Z,56.7
2019-01-20T23:51:15.414Z,57.1
2019-01-20T23:54:15.697Z,58.9
2019-01-20T23:57:15.393Z,56.5
